createdAt,value
2023-08-21T15:30:26.666Z,35.66
2023-08-21T15:35:28.199Z,35.61
2023-08-21T15:40:30.040Z,35.61
2023-08-21T15:45:31.649Z,35.53
2023-08-21T15:50:33.140Z,35.56
2023-08-21T15:55:34.696Z,35.53
2023-08-21T16:00:36.232Z,35.47
2023-08-21T16:05:37.745Z,35.39
2023-08-21T16:10:39.609Z,35.28
2023-08-21T16:15:42.111Z,35.25
2023-08-21T16:20:43.808Z,35.18
2023-08-21T16:25:45.374Z,35.09
2023-08-21T16:30:46.954Z,34.99
2023-08-21T16:35:48.427Z,34.83
2023-08-21T16:40:50.758Z,34.69
2023-08-21T16:45:52.365Z,34.69
2023-08-21T16:50:53.933Z,34.64
2023-08-21T16:55:55.648Z,34.59
2023-08-21T17:00:57.342Z,34.53
2023-08-21T17:05:58.873Z,34.48
2023-08-21T17:11:00.606Z,34.35
2023-08-21T17:16:02.188Z,34.27
2023-08-21T17:21:03.714Z,34.15
2023-08-21T17:26:05.282Z,34.06
2023-08-21T17:31:06.925Z,33.94
2023-08-21T17:36:08.419Z,33.87
2023-08-21T17:41:10.113Z,33.67
2023-08-21T17:46:11.667Z,33.54
2023-08-21T17:51:14.649Z,33.44
2023-08-21T17:56:16.236Z,33.29
2023-08-21T18:01:17.759Z,33.04
2023-08-21T18:06:23.202Z,32.83
2023-08-21T18:11:24.725Z,32.46
2023-08-21T18:16:26.373Z,32.16
2023-08-21T18:21:28.176Z,31.93
2023-08-21T18:26:29.732Z,31.78
2023-08-21T18:31:32.012Z,31.35
2023-08-21T18:36:34.823Z,30.96
2023-08-21T18:41:36.540Z,30.75
2023-08-21T18:46:38.510Z,30.54
2023-08-21T18:51:40.081Z,30.39
2023-08-21T18:56:42.017Z,30.13
2023-08-21T19:01:43.508Z,29.95
2023-08-21T19:06:59.766Z,29.74
2023-08-21T19:12:06.563Z,29.45
2023-08-21T19:17:08.201Z,29.40
2023-08-21T19:22:09.737Z,29.30
2023-08-21T19:27:11.678Z,29.00
2023-08-21T19:32:13.276Z,28.82
2023-08-21T19:37:14.935Z,28.69
2023-08-21T19:42:16.480Z,28.66
2023-08-21T19:47:18.120Z,28.52
2023-08-21T19:52:19.765Z,28.36
2023-08-21T19:57:21.454Z,28.12
2023-08-21T20:02:23.170Z,28.00
2023-08-21T20:07:24.684Z,27.92
2023-08-21T20:12:26.174Z,27.90
2023-08-21T20:17:29.635Z,27.89
2023-08-21T20:22:31.222Z,27.79
2023-08-21T20:27:33.769Z,27.60
2023-08-21T20:32:35.303Z,27.47
2023-08-21T20:37:38.868Z,27.17
2023-08-21T20:42:43.117Z,27.10
2023-08-21T20:47:44.892Z,27.05
2023-08-21T20:52:48.331Z,27.01
2023-08-21T20:57:50.516Z,26.91
2023-08-21T21:02:53.667Z,26.88
2023-08-21T21:07:55.183Z,26.87
2023-08-21T21:12:57.542Z,26.84
2023-08-21T21:17:59.542Z,26.75
2023-08-21T21:23:01.729Z,26.57
2023-08-21T21:28:03.338Z,26.53
2023-08-21T21:33:05.035Z,26.44
2023-08-21T21:38:06.902Z,26.41
2023-08-21T21:43:08.738Z,26.30
2023-08-21T21:48:10.316Z,26.11
2023-08-21T21:53:11.903Z,26.03
2023-08-21T21:58:13.843Z,25.94
2023-08-21T22:03:15.424Z,25.89
2023-08-21T22:08:17.090Z,25.94
2023-08-21T22:13:18.917Z,25.89
2023-08-21T22:18:20.446Z,25.76
2023-08-21T22:23:22.085Z,25.66
2023-08-21T22:28:23.554Z,25.29
2023-08-21T22:33:25.149Z,25.17
2023-08-21T22:38:26.689Z,25.21
2023-08-21T22:43:28.183Z,25.19
2023-08-21T22:48:29.707Z,25.10
2023-08-21T22:53:31.192Z,25.06
2023-08-21T22:58:32.860Z,25.08
2023-08-21T23:03:34.456Z,25.06
2023-08-21T23:08:36.115Z,25.05
2023-08-21T23:13:37.662Z,25.02
2023-08-21T23:18:39.123Z,24.72
2023-08-21T23:23:40.906Z,24.65
2023-08-21T23:28:42.537Z,24.50
2023-08-21T23:33:44.055Z,24.43
2023-08-21T23:38:45.593Z,24.43
2023-08-21T23:43:48.284Z,24.41
2023-08-21T23:48:49.870Z,24.32
2023-08-21T23:53:51.813Z,24.20
2023-08-21T23:58:53.298Z,24.11
